createdAt,value
2023-02-14T00:02:25.152Z,5.21
2023-02-14T00:05:03.160Z,5.23
2023-02-14T00:07:33.536Z,5.24
2023-02-14T00:10:10.909Z,5.22
2023-02-14T00:12:41.474Z,5.24
2023-02-14T00:15:26.158Z,5.25
2023-02-14T00:18:06.832Z,5.21
2023-02-14T00:20:44.647Z,5.21
2023-02-14T00:23:21.864Z,5.20
2023-02-14T00:25:59.835Z,5.16
2023-02-14T00:28:30.678Z,5.18
2023-02-14T00:31:07.503Z,5.17
2023-02-14T00:33:44.985Z,5.17
2023-02-14T00:36:24.019Z,5.17
2023-02-14T00:38:54.241Z,5.18
2023-02-14T00:41:31.026Z,5.18
2023-02-14T00:44:10.829Z,5.15
2023-02-14T00:46:47.513Z,5.12
2023-02-14T00:49:24.933Z,5.14
2023-02-14T00:52:02.468Z,5.12
2023-02-14T00:54:39.170Z,5.06
2023-02-14T00:57:17.688Z,5.01
2023-02-14T00:59:55.088Z,5.02
2023-02-14T01:02:32.747Z,5.01
2023-02-14T01:05:10.973Z,5.01
2023-02-14T01:07:41.690Z,5.01
2023-02-14T01:10:13.381Z,5.01
2023-02-14T01:12:44.316Z,5.01
2023-02-14T01:15:22.749Z,5.03
2023-02-14T01:18:00.525Z,4.99
2023-02-14T01:20:38.188Z,4.95
2023-02-14T01:23:16.519Z,4.92
2023-02-14T01:25:48.604Z,4.89
2023-02-14T01:28:19.578Z,4.88
2023-02-14T01:30:49.629Z,4.91
2023-02-14T01:33:28.090Z,4.94
2023-02-14T01:36:05.416Z,4.93
2023-02-14T01:38:42.888Z,4.82
2023-02-14T01:41:22.188Z,4.82
2023-02-14T01:44:09.452Z,4.79
2023-02-14T01:46:42.878Z,4.83
2023-02-14T01:49:38.540Z,4.84
2023-02-14T01:52:19.643Z,4.78
2023-02-14T01:55:08.261Z,4.78
2023-02-14T01:58:10.990Z,4.75
2023-02-14T02:01:00.901Z,4.74
2023-02-14T02:04:03.730Z,4.73
2023-02-14T02:06:48.093Z,4.76
2023-02-14T02:09:36.347Z,4.72
2023-02-14T02:12:13.509Z,4.68
2023-02-14T02:14:51.523Z,4.70
2023-02-14T02:17:58.075Z,4.71
2023-02-14T02:20:43.276Z,4.64
2023-02-14T02:23:30.919Z,4.62
2023-02-14T02:26:38.468Z,4.59
2023-02-14T02:30:27.189Z,4.63
2023-02-14T02:33:21.541Z,4.65
2023-02-14T02:36:12.068Z,4.68
2023-02-14T02:39:14.545Z,4.64
2023-02-14T02:42:04.134Z,4.60
2023-02-14T02:45:01.032Z,4.59
2023-02-14T02:48:08.111Z,4.53
2023-02-14T02:51:16.321Z,4.44
2023-02-14T02:54:04.204Z,4.40
2023-02-14T02:56:53.791Z,4.38
2023-02-14T02:59:38.397Z,4.38
2023-02-14T03:02:17.218Z,4.38
2023-02-14T03:04:57.356Z,4.35
2023-02-14T03:07:40.241Z,4.33
2023-02-14T03:10:34.314Z,4.24
2023-02-14T03:13:49.625Z,4.23
2023-02-14T03:16:33.411Z,4.26
2023-02-14T03:20:01.899Z,4.19
2023-02-14T03:22:54.355Z,4.16
2023-02-14T03:25:48.790Z,4.10
2023-02-14T03:28:50.344Z,4.12
2023-02-14T03:31:43.170Z,4.14
2023-02-14T03:34:33.002Z,4.13
2023-02-14T03:37:30.594Z,4.08
2023-02-14T03:40:18.260Z,3.98
2023-02-14T03:43:20.668Z,4.02
2023-02-14T03:46:12.315Z,3.98
2023-02-14T03:48:53.354Z,3.90
2023-02-14T03:51:35.871Z,3.90
2023-02-14T03:54:11.652Z,3.92
2023-02-14T03:57:20.584Z,3.92
2023-02-14T03:59:59.405Z,3.94
2023-02-14T04:03:03.002Z,3.92
2023-02-14T04:05:35.060Z,3.96
2023-02-14T04:08:13.201Z,3.97
2023-02-14T04:10:51.181Z,3.94
2023-02-14T04:13:28.638Z,3.95
2023-02-14T04:16:07.025Z,3.92
2023-02-14T04:19:04.047Z,3.93
2023-02-14T04:21:34.843Z,3.98
2023-02-14T04:24:13.557Z,4.01
2023-02-14T04:27:12.753Z,3.98
2023-02-14T04:29:56.214Z,3.93
2023-02-14T04:32:33.057Z,3.92
2023-02-14T04:35:12.450Z,3.89
2023-02-14T04:37:46.826Z,3.88
2023-02-14T04:40:18.268Z,3.92
2023-02-14T04:42:55.383Z,3.92
2023-02-14T04:45:35.156Z,3.87
2023-02-14T04:48:05.445Z,3.90
2023-02-14T04:50:43.858Z,3.90
2023-02-14T04:53:20.956Z,3.93
2023-02-14T04:55:52.192Z,3.91
2023-02-14T04:58:23.662Z,3.85
2023-02-14T05:00:56.022Z,3.78
2023-02-14T05:03:34.224Z,3.79
2023-02-14T05:06:13.144Z,3.89
2023-02-14T05:08:50.311Z,3.99
2023-02-14T05:11:28.364Z,4.02
2023-02-14T05:14:06.188Z,4.04
2023-02-14T05:16:44.183Z,3.98
2023-02-14T05:19:21.847Z,3.94
2023-02-14T05:21:59.645Z,3.96
2023-02-14T05:24:37.099Z,3.95
2023-02-14T05:27:14.894Z,3.92
2023-02-14T05:29:52.454Z,3.88
2023-02-14T05:32:22.819Z,3.88
2023-02-14T05:34:57.034Z,3.84
2023-02-14T05:37:34.555Z,3.87
2023-02-14T05:40:14.519Z,3.88
2023-02-14T05:42:51.506Z,3.83
2023-02-14T05:45:28.742Z,3.76
2023-02-14T05:48:06.404Z,3.73
2023-02-14T05:50:45.809Z,3.79
2023-02-14T05:53:23.134Z,3.80
2023-02-14T05:55:59.866Z,3.82
2023-02-14T05:58:36.911Z,3.79
2023-02-14T06:01:14.772Z,3.76
2023-02-14T06:03:52.101Z,3.76
2023-02-14T06:06:22.356Z,3.84
2023-02-14T06:08:58.393Z,3.82
2023-02-14T06:11:35.055Z,3.80
2023-02-14T06:14:11.880Z,3.79
2023-02-14T06:16:48.976Z,3.75
2023-02-14T06:19:27.042Z,3.79
2023-02-14T06:22:05.805Z,3.82
2023-02-14T06:24:43.043Z,3.87
2023-02-14T06:27:21.297Z,3.87
2023-02-14T06:29:58.719Z,3.90
2023-02-14T06:32:35.420Z,3.92
2023-02-14T06:35:09.329Z,3.99
2023-02-14T06:37:41.790Z,4.04
2023-02-14T06:40:20.214Z,4.05
2023-02-14T06:42:57.407Z,4.03
2023-02-14T06:45:34.727Z,4.03
2023-02-14T06:48:12.671Z,4.04
2023-02-14T06:50:50.322Z,3.98
2023-02-14T06:53:27.499Z,3.98
2023-02-14T06:56:04.605Z,4.02
2023-02-14T06:58:41.620Z,4.03
2023-02-14T07:01:18.560Z,4.03
2023-02-14T07:03:55.005Z,4.01
2023-02-14T07:06:32.469Z,4.02
2023-02-14T07:09:02.476Z,4.08
2023-02-14T07:11:40.083Z,4.04
2023-02-14T07:14:10.586Z,4.09
2023-02-14T07:16:48.180Z,4.11
2023-02-14T07:19:25.326Z,4.09
2023-02-14T07:22:02.209Z,4.12
2023-02-14T07:24:40.050Z,4.12
2023-02-14T07:27:17.892Z,4.11
2023-02-14T07:29:55.283Z,4.18
2023-02-14T07:32:27.489Z,4.17
2023-02-14T07:35:01.703Z,4.15
2023-02-14T07:37:41.145Z,4.14
2023-02-14T07:40:18.686Z,4.19
2023-02-14T07:43:01.589Z,4.15
2023-02-14T07:45:38.890Z,4.12
2023-02-14T07:48:15.880Z,4.07
2023-02-14T07:50:53.496Z,4.09
2023-02-14T07:53:30.711Z,4.10
2023-02-14T07:56:08.613Z,4.07
2023-02-14T07:58:46.036Z,4.03
2023-02-14T08:01:23.196Z,4.06
2023-02-14T08:03:59.903Z,4.15
2023-02-14T08:06:36.281Z,4.25
2023-02-14T08:09:07.745Z,4.30
2023-02-14T08:12:02.326Z,4.36
2023-02-14T08:14:39.706Z,4.44
2023-02-14T08:17:14.402Z,4.30
2023-02-14T08:19:45.850Z,4.31
2023-02-14T08:22:22.348Z,4.29
2023-02-14T08:24:59.077Z,4.35
2023-02-14T08:27:35.842Z,4.39
2023-02-14T08:30:19.877Z,4.43
2023-02-14T08:32:57.647Z,4.34
2023-02-14T08:35:34.978Z,4.22
2023-02-14T08:38:12.653Z,4.21
2023-02-14T08:40:50.236Z,4.22
2023-02-14T08:43:20.853Z,4.28
2023-02-14T08:46:00.681Z,4.27
2023-02-14T08:48:39.543Z,4.28
2023-02-14T08:51:15.138Z,4.30
2023-02-14T08:53:46.933Z,4.34
2023-02-14T08:56:23.287Z,4.39
2023-02-14T08:59:01.207Z,4.49
2023-02-14T09:01:39.080Z,4.55
2023-02-14T09:04:12.217Z,4.50
2023-02-14T09:06:51.815Z,4.38
2023-02-14T09:09:22.953Z,4.43
2023-02-14T09:12:00.204Z,4.49
2023-02-14T09:14:44.893Z,4.53
2023-02-14T09:17:21.652Z,4.53
2023-02-14T09:20:00.048Z,4.55
2023-02-14T09:22:38.784Z,4.53
2023-02-14T09:25:09.403Z,4.63
2023-02-14T09:27:44.576Z,4.70
2023-02-14T09:30:21.135Z,4.63
2023-02-14T09:32:58.558Z,4.63
2023-02-14T09:35:54.863Z,4.63
2023-02-14T09:38:27.229Z,4.64
2023-02-14T09:41:08.170Z,4.74
2023-02-14T09:44:09.958Z,4.78
2023-02-14T09:46:56.521Z,4.90
2023-02-14T09:49:42.624Z,5.04
2023-02-14T09:52:20.925Z,5.04
2023-02-14T09:54:59.225Z,5.00
2023-02-14T09:58:27.969Z,5.03
2023-02-14T10:01:14.848Z,5.10
2023-02-14T10:03:58.193Z,4.91
2023-02-14T10:06:56.903Z,4.90
2023-02-14T10:10:18.346Z,4.87
2023-02-14T10:13:30.740Z,4.86
2023-02-14T10:16:43.595Z,4.90
2023-02-14T10:19:30.697Z,4.84
2023-02-14T10:22:21.179Z,4.86
2023-02-14T10:25:35.130Z,4.91
2023-02-14T10:28:17.005Z,4.98
2023-02-14T10:31:17.994Z,5.03
2023-02-14T10:34:30.183Z,5.07
2023-02-14T10:37:49.000Z,5.05
2023-02-14T10:41:06.877Z,5.11
2023-02-14T10:44:02.517Z,5.07
2023-02-14T10:47:06.380Z,5.03
2023-02-14T10:49:36.985Z,5.07
2023-02-14T10:52:28.245Z,4.97
2023-02-14T10:55:30.077Z,5.02
2023-02-14T10:58:14.426Z,5.21
2023-02-14T11:01:14.817Z,5.27
2023-02-14T11:04:12.181Z,5.23
2023-02-14T11:06:45.290Z,5.27
2023-02-14T11:09:24.612Z,5.27
2023-02-14T11:12:06.339Z,5.25
2023-02-14T11:14:45.112Z,5.22
2023-02-14T11:17:36.728Z,5.22
2023-02-14T11:20:28.610Z,5.24
2023-02-14T11:23:19.617Z,5.35
2023-02-14T11:25:56.751Z,5.37
2023-02-14T11:28:31.171Z,5.40
2023-02-14T11:31:05.863Z,5.43
2023-02-14T11:33:51.389Z,5.34
2023-02-14T11:36:28.922Z,5.27
2023-02-14T11:39:38.898Z,5.30
2023-02-14T11:42:36.957Z,5.31
2023-02-14T11:45:38.212Z,5.40
2023-02-14T11:48:40.236Z,5.51
2023-02-14T11:51:17.202Z,5.67
2023-02-14T11:54:02.949Z,5.79
2023-02-14T11:57:03.759Z,5.93
2023-02-14T11:59:55.592Z,5.92
2023-02-14T12:02:39.080Z,5.90
2023-02-14T12:05:50.559Z,5.83
2023-02-14T12:08:32.630Z,5.85
2023-02-14T12:11:22.429Z,5.89
2023-02-14T12:13:59.050Z,5.86
2023-02-14T12:17:07.376Z,5.93
2023-02-14T12:20:14.177Z,5.97
2023-02-14T12:23:11.835Z,6.07
2023-02-14T12:26:22.494Z,6.05
2023-02-14T12:29:32.883Z,6.04
2023-02-14T12:32:30.644Z,6.08
2023-02-14T12:35:22.094Z,6.10
2023-02-14T12:38:19.031Z,6.17
2023-02-14T12:41:27.000Z,6.24
2023-02-14T12:44:32.237Z,6.10
2023-02-14T12:47:39.035Z,5.99
2023-02-14T12:50:43.366Z,5.99
2023-02-14T12:54:00.241Z,5.96
2023-02-14T12:57:05.798Z,6.10
2023-02-14T13:00:15.541Z,6.07
2023-02-14T13:03:32.792Z,6.20
2023-02-14T13:06:34.364Z,6.23
2023-02-14T13:10:03.257Z,6.22
2023-02-14T13:13:01.829Z,6.26
2023-02-14T13:16:01.215Z,6.25
2023-02-14T13:18:55.682Z,6.30
2023-02-14T13:21:39.533Z,6.25
2023-02-14T13:24:43.976Z,6.28
2023-02-14T13:27:47.513Z,6.26
2023-02-14T13:30:34.379Z,6.26
2023-02-14T13:33:34.727Z,6.25
2023-02-14T13:36:12.827Z,6.19
2023-02-14T13:41:28.177Z,6.20
2023-02-14T13:44:06.106Z,6.22
2023-02-14T13:46:36.977Z,6.29
2023-02-14T13:49:41.061Z,6.24
2023-02-14T13:52:35.652Z,6.25
2023-02-14T13:55:28.437Z,6.26
2023-02-14T13:58:33.505Z,6.21
2023-02-14T14:01:52.007Z,6.19
2023-02-14T14:04:32.877Z,6.25
2023-02-14T14:07:17.748Z,6.36
2023-02-14T14:09:54.372Z,6.39
2023-02-14T14:12:33.516Z,6.35
2023-02-14T14:15:20.336Z,6.25
2023-02-14T14:18:18.626Z,6.18
2023-02-14T14:20:53.962Z,6.15
2023-02-14T14:23:41.403Z,6.20
2023-02-14T14:26:38.871Z,6.29
2023-02-14T14:29:29.710Z,6.30
2023-02-14T14:32:32.866Z,6.23
2023-02-14T14:35:21.644Z,6.19
2023-02-14T14:37:56.877Z,6.24
2023-02-14T14:40:39.100Z,6.27
2023-02-14T14:43:27.540Z,6.22
2023-02-14T14:46:06.727Z,6.33
2023-02-14T14:48:52.107Z,6.33
2023-02-14T14:51:37.130Z,6.32
2023-02-14T14:54:25.817Z,6.35
2023-02-14T14:57:04.372Z,6.38
2023-02-14T14:59:42.150Z,6.37
2023-02-14T15:02:32.660Z,6.41
2023-02-14T15:05:44.664Z,6.36
2023-02-14T15:08:34.870Z,6.37
2023-02-14T15:11:45.709Z,6.36
2023-02-14T15:14:29.249Z,6.30
2023-02-14T15:17:21.533Z,6.27
2023-02-14T15:20:22.101Z,6.31
2023-02-14T15:23:00.192Z,6.29
2023-02-14T15:25:39.657Z,6.27
2023-02-14T15:28:32.803Z,6.31
2023-02-14T15:31:09.292Z,6.36
2023-02-14T15:33:48.837Z,6.38
2023-02-14T15:36:28.312Z,6.35
2023-02-14T15:39:07.871Z,6.36
2023-02-14T15:41:49.028Z,6.34
2023-02-14T15:44:28.134Z,6.27
2023-02-14T15:47:08.274Z,6.24
2023-02-14T15:49:46.946Z,6.22
2023-02-14T15:52:20.395Z,6.18
2023-02-14T15:54:55.524Z,6.24
2023-02-14T15:57:31.103Z,6.22
2023-02-14T16:00:22.011Z,6.18
2023-02-14T16:03:01.007Z,6.16
2023-02-14T16:05:40.161Z,6.15
2023-02-14T16:08:41.458Z,6.15
2023-02-14T16:11:40.272Z,6.07
2023-02-14T16:14:49.789Z,5.93
2023-02-14T16:17:39.107Z,5.84
2023-02-14T16:20:51.688Z,5.76
2023-02-14T16:23:29.748Z,5.70
2023-02-14T16:26:02.081Z,5.63
2023-02-14T16:28:38.141Z,5.56
2023-02-14T16:31:16.998Z,5.49
2023-02-14T16:33:50.748Z,5.49
2023-02-14T16:36:35.809Z,5.49
2023-02-14T16:39:17.304Z,5.50
2023-02-14T16:41:54.406Z,5.45
2023-02-14T16:44:33.140Z,5.44
2023-02-14T16:47:12.784Z,5.41
2023-02-14T16:49:53.296Z,5.32
2023-02-14T16:52:32.221Z,5.25
2023-02-14T16:55:17.609Z,5.21
2023-02-14T16:57:55.316Z,5.19
2023-02-14T17:00:34.708Z,5.17
2023-02-14T17:03:08.361Z,5.19
2023-02-14T17:05:48.265Z,5.17
2023-02-14T17:08:27.767Z,5.12
2023-02-14T17:11:06.378Z,5.10
2023-02-14T17:13:45.484Z,5.08
2023-02-14T17:16:25.518Z,5.07
2023-02-14T17:19:06.754Z,5.02
2023-02-14T17:21:45.982Z,5.08
2023-02-14T17:24:24.295Z,5.06
2023-02-14T17:26:55.519Z,5.04
2023-02-14T17:29:33.463Z,5.00
2023-02-14T17:32:04.983Z,4.95
2023-02-14T17:34:41.580Z,4.90
2023-02-14T17:37:19.650Z,4.86
2023-02-14T17:39:55.584Z,4.85
2023-02-14T17:42:35.236Z,4.84
2023-02-14T17:45:13.313Z,4.84
2023-02-14T17:47:50.424Z,4.79
2023-02-14T17:50:28.593Z,4.77
2023-02-14T17:53:07.490Z,4.73
2023-02-14T17:55:44.706Z,4.68
2023-02-14T17:58:14.964Z,4.65
2023-02-14T18:00:53.022Z,4.64
2023-02-14T18:03:23.142Z,4.63
2023-02-14T18:05:53.853Z,4.61
2023-02-14T18:08:37.499Z,4.61
2023-02-14T18:11:11.537Z,4.58
2023-02-14T18:13:51.025Z,4.54
2023-02-14T18:16:25.477Z,4.47
2023-02-14T18:19:09.492Z,4.49
2023-02-14T18:21:48.465Z,4.50
2023-02-14T18:24:18.982Z,4.44
2023-02-14T18:26:54.891Z,4.40
2023-02-14T18:29:34.424Z,4.40
2023-02-14T18:32:06.259Z,4.38
2023-02-14T18:34:38.383Z,4.34
2023-02-14T18:37:13.049Z,4.35
2023-02-14T18:39:51.610Z,4.34
2023-02-14T18:42:29.332Z,4.34
2023-02-14T18:45:07.536Z,4.29
2023-02-14T18:47:45.907Z,4.25
2023-02-14T18:50:24.366Z,4.22
2023-02-14T18:52:54.898Z,4.17
2023-02-14T18:55:27.938Z,4.18
2023-02-14T18:58:02.464Z,4.17
2023-02-14T19:00:41.144Z,4.14
2023-02-14T19:03:18.826Z,4.12
2023-02-14T19:05:55.266Z,4.09
2023-02-14T19:08:37.138Z,4.02
2023-02-14T19:11:23.804Z,4.00
2023-02-14T19:13:57.809Z,4.00
2023-02-14T19:16:39.860Z,4.00
2023-02-14T19:19:18.470Z,3.99
2023-02-14T19:21:56.611Z,3.95
2023-02-14T19:24:35.074Z,3.90
2023-02-14T19:27:06.897Z,3.88
2023-02-14T19:29:46.471Z,3.88
2023-02-14T19:32:17.526Z,3.88
2023-02-14T19:34:51.398Z,3.86
2023-02-14T19:37:24.981Z,3.83
2023-02-14T19:39:57.553Z,3.76
2023-02-14T19:42:37.175Z,3.72
2023-02-14T19:45:15.460Z,3.70
2023-02-14T19:47:53.127Z,3.70
2023-02-14T19:50:31.734Z,3.71
2023-02-14T19:53:01.948Z,3.71
2023-02-14T19:55:33.731Z,3.70
2023-02-14T19:58:04.127Z,3.66
2023-02-14T20:00:42.195Z,3.64
2023-02-14T20:03:20.805Z,3.66
2023-02-14T20:05:55.208Z,3.68
2023-02-14T20:08:35.014Z,3.69
2023-02-14T20:11:05.193Z,3.67
2023-02-14T20:13:44.247Z,3.63
2023-02-14T20:16:14.594Z,3.60
2023-02-14T20:18:45.089Z,3.59
2023-02-14T20:21:28.608Z,3.60
2023-02-14T20:24:04.719Z,3.59
2023-02-14T20:26:43.080Z,3.59
2023-02-14T20:29:21.532Z,3.59
2023-02-14T20:32:04.299Z,3.56
2023-02-14T20:34:43.208Z,3.52
2023-02-14T20:37:13.500Z,3.51
2023-02-14T20:39:51.896Z,3.53
2023-02-14T20:42:24.027Z,3.53
2023-02-14T20:44:57.683Z,3.53
2023-02-14T20:47:29.001Z,3.50
2023-02-14T20:49:59.187Z,3.46
2023-02-14T20:52:37.816Z,3.45
2023-02-14T20:55:15.737Z,3.40
2023-02-14T20:57:53.215Z,3.39
2023-02-14T21:00:26.606Z,3.37
2023-02-14T21:02:58.093Z,3.36
2023-02-14T21:05:29.284Z,3.33
2023-02-14T21:08:01.396Z,3.23
2023-02-14T21:10:35.591Z,3.31
2023-02-14T21:13:13.758Z,3.29
2023-02-14T21:15:51.544Z,3.33
2023-02-14T21:18:22.543Z,3.31
2023-02-14T21:21:09.124Z,3.24
2023-02-14T21:23:49.654Z,3.21
2023-02-14T21:26:26.080Z,3.15
2023-02-14T21:28:57.517Z,3.18
2023-02-14T21:31:28.890Z,3.22
2023-02-14T21:34:02.727Z,3.28
2023-02-14T21:36:38.562Z,3.26
2023-02-14T21:39:16.638Z,3.28
2023-02-14T21:41:54.702Z,3.30
2023-02-14T21:44:51.339Z,3.33
2023-02-14T21:47:27.889Z,3.39
2023-02-14T21:50:16.230Z,3.44
2023-02-14T21:52:47.927Z,3.49
2023-02-14T21:55:26.205Z,3.51
2023-02-14T21:57:57.869Z,3.51
2023-02-14T22:00:28.216Z,3.55
2023-02-14T22:02:58.598Z,3.56
2023-02-14T22:05:29.615Z,3.57
2023-02-14T22:08:00.212Z,3.60
2023-02-14T22:10:40.952Z,3.66
2023-02-14T22:13:18.463Z,3.70
2023-02-14T22:15:56.542Z,3.74
2023-02-14T22:18:34.447Z,3.75
2023-02-14T22:21:19.464Z,3.75
2023-02-14T22:23:59.036Z,3.80
2023-02-14T22:26:41.635Z,3.82
2023-02-14T22:29:18.700Z,3.85
2023-02-14T22:31:56.978Z,3.90
2023-02-14T22:34:36.371Z,3.91
2023-02-14T22:37:14.115Z,3.92
2023-02-14T22:39:51.864Z,3.91
2023-02-14T22:42:29.534Z,3.95
2023-02-14T22:45:01.548Z,3.98
2023-02-14T22:47:32.970Z,4.02
2023-02-14T22:50:03.047Z,4.05
2023-02-14T22:52:41.127Z,4.05
2023-02-14T22:55:19.533Z,4.11
2023-02-14T22:57:57.473Z,4.11
2023-02-14T23:00:36.046Z,4.10
2023-02-14T23:03:13.943Z,4.11
2023-02-14T23:05:57.459Z,4.15
2023-02-14T23:08:34.868Z,4.22
2023-02-14T23:11:22.202Z,4.18
2023-02-14T23:14:16.955Z,4.25
2023-02-14T23:17:09.900Z,4.16
2023-02-14T23:20:06.447Z,4.16
2023-02-14T23:22:44.915Z,4.17
2023-02-14T23:25:22.016Z,4.20
2023-02-14T23:28:00.050Z,4.24
2023-02-14T23:30:53.591Z,4.30
2023-02-14T23:33:24.024Z,4.35
2023-02-14T23:36:03.262Z,4.39
2023-02-14T23:38:41.851Z,4.36
2023-02-14T23:41:37.512Z,4.31
2023-02-14T23:44:09.220Z,4.33
2023-02-14T23:46:47.741Z,4.35
2023-02-14T23:49:25.708Z,4.38
2023-02-14T23:52:02.040Z,4.37
2023-02-14T23:54:39.731Z,4.40
2023-02-14T23:57:17.558Z,4.40
2023-02-14T23:59:55.767Z,4.32
